createdAt,value
2024-04-05T00:00:16.930Z,98844
2024-04-05T00:01:19.198Z,98839.8
2024-04-05T00:02:16.872Z,98836.4
2024-04-05T00:03:16.181Z,98833.4
2024-04-05T00:04:16.379Z,98832.2
2024-04-05T00:05:17.170Z,98832.2
2024-04-05T00:06:16.460Z,98832.8
2024-04-05T00:07:16.748Z,98833.4
2024-04-05T00:08:16.101Z,98833
2024-04-05T00:09:16.442Z,98831.8
2024-04-05T00:10:17.298Z,98830
2024-04-05T00:11:16.451Z,98829
2024-04-05T00:12:16.864Z,98828.4
2024-04-05T00:13:16.097Z,98827.8
2024-04-05T00:14:16.486Z,98828.2
2024-04-05T00:15:17.111Z,98828.4
2024-04-05T00:16:16.269Z,98828.2
2024-04-05T00:17:16.554Z,98827
2024-04-05T00:18:16.750Z,98827
2024-04-05T00:19:16.142Z,98825.8
2024-04-05T00:20:16.966Z,98825.2
2024-04-05T00:21:16.174Z,98825.4
2024-04-05T00:22:16.510Z,98827
2024-04-05T00:23:17.337Z,98828.6
2024-04-05T00:24:15.944Z,98831.4
2024-04-05T00:25:16.621Z,98832.2
2024-04-05T00:26:16.048Z,98831
2024-04-05T00:27:16.277Z,98826.6
2024-04-05T00:28:16.609Z,98819.8
2024-04-05T00:29:16.795Z,98811.2
2024-04-05T00:30:16.568Z,98804
2024-04-05T00:31:17.089Z,98797.2
2024-04-05T00:32:16.216Z,98792
2024-04-05T00:33:16.459Z,98786.8
2024-04-05T00:34:16.732Z,98781.6
2024-04-05T00:35:16.337Z,98777.2
2024-04-05T00:36:16.676Z,98773.2
2024-04-05T00:37:15.902Z,98770.8
2024-04-05T00:38:16.139Z,98770
2024-04-05T00:39:16.599Z,98770.6
2024-04-05T00:40:17.387Z,98771.8
2024-04-05T00:41:16.805Z,98773.2
2024-04-05T00:42:15.992Z,98773.2
2024-04-05T00:43:17.163Z,98774
2024-04-05T00:44:16.630Z,98774.8
2024-04-05T00:45:17.399Z,98774
2024-04-05T00:46:16.693Z,98772.2
2024-04-05T00:47:15.815Z,98770.2
2024-04-05T00:48:16.014Z,98766.4
2024-04-05T00:49:16.327Z,98761.4
2024-04-05T00:50:17.076Z,98755.8
2024-04-05T00:51:16.370Z,98750.2
2024-04-05T00:52:16.647Z,98745.2
2024-04-05T00:53:16.020Z,98740.4
2024-04-05T00:54:16.218Z,98736.6
2024-04-05T00:55:17.204Z,98732.8
2024-04-05T00:56:16.445Z,98730.4
2024-04-05T00:57:16.629Z,98729.8
2024-04-05T00:58:16.901Z,98730.8
2024-04-05T00:59:16.192Z,98733.2
2024-04-05T01:00:16.853Z,98737.2
2024-04-05T01:01:16.221Z,98741.4
2024-04-05T01:02:16.925Z,98743.8
2024-04-05T01:03:16.165Z,98746.6
2024-04-05T01:04:16.407Z,98747.2
2024-04-05T01:05:17.074Z,98747.2
2024-04-05T01:06:16.256Z,98747.8
2024-04-05T01:07:16.531Z,98748.6
2024-04-05T01:08:16.813Z,98747.8
2024-04-05T01:09:16.216Z,98748
2024-04-05T01:10:16.794Z,98749
2024-04-05T01:11:16.012Z,98749.8
2024-04-05T01:12:16.372Z,98751.2
2024-04-05T01:13:16.590Z,98753.4
2024-04-05T01:14:15.946Z,98755.8
2024-04-05T01:15:16.737Z,98755.2
2024-04-05T01:16:15.930Z,98755.2
2024-04-05T01:17:16.256Z,98754.2
2024-04-05T01:18:16.590Z,98754
2024-04-05T01:19:16.872Z,98753.2
2024-04-05T01:20:16.559Z,98753.6
2024-04-05T01:21:16.652Z,98754.2
2024-04-05T01:22:15.748Z,98754.6
2024-04-05T01:23:16.010Z,98753
2024-04-05T01:24:16.494Z,98751.4
2024-04-05T01:25:17.097Z,98750.2
2024-04-05T01:26:16.346Z,98747.6
2024-04-05T01:27:16.563Z,98745.8
2024-04-05T01:28:16.914Z,98745.4
2024-04-05T01:29:16.087Z,98746
2024-04-05T01:30:16.810Z,98747.2
2024-04-05T01:31:16.191Z,98748.6
2024-04-05T01:32:16.614Z,98749
2024-04-05T01:33:17.595Z,98750.8
2024-04-05T01:34:15.961Z,98753
2024-04-05T01:35:16.409Z,98755
2024-04-05T01:36:16.665Z,98755.8
2024-04-05T01:37:15.914Z,98757.4
2024-04-05T01:38:16.152Z,98755.8
2024-04-05T01:39:16.663Z,98754
2024-04-05T01:40:16.350Z,98753.4
2024-04-05T01:41:16.689Z,98754.4
2024-04-05T01:42:15.902Z,98755
2024-04-05T01:43:16.157Z,98756.2
2024-04-05T01:44:16.710Z,98757
2024-04-05T01:45:16.283Z,98757.8
2024-04-05T01:46:16.564Z,98757.8
2024-04-05T01:47:16.923Z,98758.2
2024-04-05T01:48:16.159Z,98759.4
2024-04-05T01:49:16.453Z,98760.8
2024-04-05T01:50:17.088Z,98761.2
2024-04-05T01:51:16.292Z,98760.2
2024-04-05T01:52:16.512Z,98758.6
2024-04-05T01:53:16.708Z,98758.2
2024-04-05T01:54:15.834Z,98755.8
2024-04-05T01:55:16.567Z,98754
2024-04-05T01:56:16.832Z,98752.8
2024-04-05T01:57:16.121Z,98752.4
2024-04-05T01:58:16.441Z,98751.2
2024-04-05T01:59:16.419Z,98751.2
2024-04-05T02:00:17.226Z,98750.4
2024-04-05T02:01:16.490Z,98750.2
2024-04-05T02:02:16.959Z,98749.8
2024-04-05T02:03:16.252Z,98749.4
2024-04-05T02:04:16.530Z,98749.4
2024-04-05T02:05:17.259Z,98749.2
2024-04-05T02:06:16.591Z,98749
2024-04-05T02:07:16.817Z,98748.6
2024-04-05T02:08:19.064Z,98749.2
2024-04-05T02:09:16.412Z,98749
2024-04-05T02:10:17.227Z,98749.4
2024-04-05T02:11:16.975Z,98750.4
2024-04-05T02:12:16.297Z,98752.2
2024-04-05T02:13:16.331Z,98754
2024-04-05T02:14:16.776Z,98756.2
2024-04-05T02:15:16.510Z,98758.4
2024-04-05T02:16:16.760Z,98760.6
2024-04-05T02:17:16.281Z,98763
2024-04-05T02:18:17.028Z,98764.4
2024-04-05T02:19:16.453Z,98766
2024-04-05T02:20:16.908Z,98766.6
2024-04-05T02:21:16.234Z,98767.4
2024-04-05T02:22:16.497Z,98767.2
2024-04-05T02:23:16.863Z,98767.8
2024-04-05T02:24:16.063Z,98767.6
2024-04-05T02:25:16.695Z,98768.4
2024-04-05T02:26:15.936Z,98769.6
2024-04-05T02:27:16.211Z,98770.8
2024-04-05T02:28:16.531Z,98771.4
2024-04-05T02:29:16.707Z,98773
2024-04-05T02:30:16.429Z,98774.2
2024-04-05T02:31:16.631Z,98775.2
2024-04-05T02:32:15.777Z,98776.4
2024-04-05T02:33:15.848Z,98777.8
2024-04-05T02:34:16.274Z,98778.6
2024-04-05T02:35:17.097Z,98780.2
2024-04-05T02:36:16.425Z,98781.4
2024-04-05T02:37:16.707Z,98782.8
2024-04-05T02:38:15.732Z,98783.6
2024-04-05T02:39:16.240Z,98786.2
2024-04-05T02:40:16.941Z,98788
2024-04-05T02:41:16.213Z,98790.8
2024-04-05T02:42:16.339Z,98793.6
2024-04-05T02:43:16.838Z,98795.8
2024-04-05T02:44:16.162Z,98797.2
2024-04-05T02:45:16.862Z,98799
2024-04-05T02:46:16.124Z,98799.6
2024-04-05T02:47:16.528Z,98799.8
2024-04-05T02:48:16.822Z,98801.6
2024-04-05T02:49:16.021Z,98801.6
2024-04-05T02:50:16.773Z,98801.8
2024-04-05T02:51:15.966Z,98801.8
2024-04-05T02:52:16.346Z,98802.2
2024-04-05T02:53:16.826Z,98802.6
2024-04-05T02:54:19.425Z,98804.4
2024-04-05T02:55:17.033Z,98806
2024-04-05T02:56:16.178Z,98809
2024-04-05T02:57:16.626Z,98810.8
2024-04-05T02:58:15.970Z,98811.6
2024-04-05T02:59:16.360Z,98812
2024-04-05T03:00:17.070Z,98812.2
2024-04-05T03:01:16.303Z,98811.6
2024-04-05T03:02:16.996Z,98812.8
2024-04-05T03:03:16.295Z,98814.2
2024-04-05T03:04:16.486Z,98815.4
2024-04-05T03:05:21.035Z,98817
2024-04-05T03:06:16.365Z,98818.4
2024-04-05T03:07:16.732Z,98819.6
2024-04-05T03:08:16.099Z,98820.4
2024-04-05T03:09:16.368Z,98821.4
2024-04-05T03:10:17.254Z,98823.2
2024-04-05T03:11:16.409Z,98824.4
2024-04-05T03:12:16.768Z,98825
2024-04-05T03:13:16.176Z,98826
2024-04-05T03:14:16.508Z,98826.6
2024-04-05T03:15:17.190Z,98825
2024-04-05T03:16:16.423Z,98823.6
2024-04-05T03:17:16.730Z,98823.8
2024-04-05T03:18:16.093Z,98824
2024-04-05T03:19:16.411Z,98824.2
2024-04-05T03:20:17.142Z,98824.8
2024-04-05T03:21:16.381Z,98825.8
2024-04-05T03:22:16.658Z,98825.8
2024-04-05T03:23:16.811Z,98826.2
2024-04-05T03:24:16.142Z,98827.4
2024-04-05T03:25:16.793Z,98829
2024-04-05T03:26:15.996Z,98830.6
2024-04-05T03:27:16.407Z,98831.4
2024-04-05T03:28:16.711Z,98832.2
2024-04-05T03:29:15.879Z,98832.8
2024-04-05T03:30:16.486Z,98833
2024-04-05T03:31:16.871Z,98833.8
2024-04-05T03:32:16.157Z,98835
2024-04-05T03:33:16.298Z,98836.2
2024-04-05T03:34:16.669Z,98837.8
2024-04-05T03:35:16.452Z,98839.6
2024-04-05T03:36:16.738Z,98840.6
2024-04-05T03:37:15.924Z,98841.2
2024-04-05T03:38:16.209Z,98842.2
2024-04-05T03:39:16.598Z,98842.6
2024-04-05T03:40:16.167Z,98843.2
2024-04-05T03:41:16.547Z,98843.6
2024-04-05T03:42:16.668Z,98845.4
2024-04-05T03:43:16.914Z,98846.8
2024-04-05T03:44:16.165Z,98848.6
2024-04-05T03:45:16.835Z,98850.4
2024-04-05T03:46:16.001Z,98852.8
2024-04-05T03:47:16.324Z,98853.8
2024-04-05T03:48:16.635Z,98854.8
2024-04-05T03:49:15.953Z,98854.6
2024-04-05T03:50:16.766Z,98854.8
2024-04-05T03:51:15.925Z,98854.6
2024-04-05T03:52:16.128Z,98854.4
2024-04-05T03:53:16.395Z,98854
2024-04-05T03:54:16.646Z,98854.2
2024-04-05T03:55:16.430Z,98855.6
2024-04-05T03:56:16.767Z,98856.4
2024-04-05T03:57:15.944Z,98858
2024-04-05T03:58:16.316Z,98859.2
2024-04-05T03:59:16.701Z,98861.4
2024-04-05T04:00:16.376Z,98861.8
2024-04-05T04:01:16.842Z,98862.6
2024-04-05T04:02:16.498Z,98863
2024-04-05T04:03:16.733Z,98863.8
2024-04-05T04:04:16.139Z,98864.6
2024-04-05T04:05:16.941Z,98866.2
2024-04-05T04:06:16.165Z,98867.8
2024-04-05T04:07:16.492Z,98869.2
2024-04-05T04:08:16.669Z,98870.2
2024-04-05T04:09:16.002Z,98870.4
2024-04-05T04:10:16.852Z,98869.6
2024-04-05T04:11:16.236Z,98869.2
2024-04-05T04:12:16.482Z,98869
2024-04-05T04:13:16.618Z,98869.2
2024-04-05T04:14:16.113Z,98869.6
2024-04-05T04:15:18.842Z,98870.8
2024-04-05T04:16:18.840Z,98871
2024-04-05T04:17:16.611Z,98870.6
2024-04-05T04:18:16.875Z,98870.4
2024-04-05T04:19:16.105Z,98869.8
2024-04-05T04:20:16.983Z,98869.4
2024-04-05T04:21:16.333Z,98868.2
2024-04-05T04:22:16.497Z,98868
2024-04-05T04:23:16.696Z,98868
2024-04-05T04:24:15.983Z,98868.2
2024-04-05T04:25:16.816Z,98868.2
2024-04-05T04:26:16.093Z,98868.8
2024-04-05T04:27:16.575Z,98868.8
2024-04-05T04:28:15.845Z,98867.8
2024-04-05T04:29:16.260Z,98867.8
2024-04-05T04:30:16.878Z,98867.8
2024-04-05T04:31:16.217Z,98868.8
2024-04-05T04:32:16.521Z,98869.4
2024-04-05T04:33:16.743Z,98871
2024-04-05T04:34:16.032Z,98872
2024-04-05T04:35:16.609Z,98873.4
2024-04-05T04:36:15.973Z,98873.4
2024-04-05T04:37:16.230Z,98875.2
2024-04-05T04:38:16.491Z,98875
2024-04-05T04:39:16.893Z,98875
2024-04-05T04:40:16.893Z,98874
2024-04-05T04:41:16.218Z,98874.4
2024-04-05T04:42:16.288Z,98873.4
2024-04-05T04:43:16.510Z,98873.6
2024-04-05T04:44:16.882Z,98873
2024-04-05T04:45:16.615Z,98873.2
2024-04-05T04:46:16.955Z,98873.4
2024-04-05T04:47:16.112Z,98873.4
2024-04-05T04:48:16.385Z,98873
2024-04-05T04:49:16.663Z,98873
2024-04-05T04:50:16.394Z,98874.2
2024-04-05T04:51:16.600Z,98874
2024-04-05T04:52:16.802Z,98875.2
2024-04-05T04:53:16.092Z,98875.8
2024-04-05T04:54:16.335Z,98877
2024-04-05T04:55:16.831Z,98875.8
2024-04-05T04:56:16.028Z,98875.8
2024-04-05T04:57:16.342Z,98875
2024-04-05T04:58:16.682Z,98875.6
2024-04-05T04:59:19.056Z,98875.6
2024-04-05T05:00:16.748Z,98875.8
2024-04-05T05:01:16.005Z,98876.8
2024-04-05T05:02:16.824Z,98876.6
2024-04-05T05:03:16.097Z,98876.6
2024-04-05T05:04:16.322Z,98875.6
2024-04-05T05:05:17.114Z,98877
2024-04-05T05:06:16.482Z,98877.6
2024-04-05T05:07:16.790Z,98879
2024-04-05T05:08:16.108Z,98880
2024-04-05T05:09:16.543Z,98882.4
2024-04-05T05:10:17.148Z,98883.2
2024-04-05T05:11:16.550Z,98885
2024-04-05T05:12:21.695Z,98886.2
2024-04-05T05:13:16.003Z,98887.4
2024-04-05T05:14:16.155Z,98888.8
2024-04-05T05:15:17.030Z,98891.2
2024-04-05T05:16:16.485Z,98892.2
2024-04-05T05:17:16.599Z,98894.8
2024-04-05T05:18:16.046Z,98897.8
2024-04-05T05:19:16.319Z,98900.2
2024-04-05T05:20:16.816Z,98901.4
2024-04-05T05:21:16.242Z,98902.8
2024-04-05T05:22:16.112Z,98905
2024-04-05T05:23:16.581Z,98906
2024-04-05T05:24:16.838Z,98908.4
2024-04-05T05:25:16.570Z,98911
2024-04-05T05:26:16.755Z,98914.4
2024-04-05T05:27:15.825Z,98916
2024-04-05T05:28:16.111Z,98918.8
2024-04-05T05:29:16.440Z,98920.4
2024-04-05T05:30:17.244Z,98921.8
2024-04-05T05:31:16.557Z,98923.6
2024-04-05T05:32:16.713Z,98925.2
2024-04-05T05:33:16.046Z,98926.2
2024-04-05T05:34:16.270Z,98927.4
2024-04-05T05:35:17.021Z,98929.4
2024-04-05T05:36:16.369Z,98929.6
2024-04-05T05:37:15.470Z,98930.4
2024-04-05T05:38:16.884Z,98932
2024-04-05T05:39:16.107Z,98933.6
2024-04-05T05:40:16.807Z,98934.8
2024-04-05T05:41:16.146Z,98936.8
2024-04-05T05:42:16.447Z,98938.6
2024-04-05T05:43:21.632Z,98939
2024-04-05T05:44:16.695Z,98939
2024-04-05T05:45:16.374Z,98938.6
2024-04-05T05:46:16.711Z,98938.2
2024-04-05T05:47:19.512Z,98938
2024-04-05T05:48:16.142Z,98939.4
2024-04-05T05:49:16.349Z,98940.8
2024-04-05T05:50:17.004Z,98942.8
2024-04-05T05:51:16.387Z,98945.8
2024-04-05T05:52:16.575Z,98948.4
2024-04-05T05:53:16.888Z,98950.2
2024-04-05T05:54:16.197Z,98952.4
2024-04-05T05:55:16.996Z,98953.8
2024-04-05T05:56:16.259Z,98954.8
2024-04-05T05:57:19.509Z,98954.8
2024-04-05T05:58:16.841Z,98954.4
2024-04-05T05:59:16.097Z,98953.8
2024-04-05T06:00:16.866Z,98953.2
2024-04-05T06:01:16.069Z,98952
2024-04-05T06:02:16.675Z,98953
2024-04-05T06:03:16.203Z,98954
2024-04-05T06:04:16.550Z,98954.4
2024-04-05T06:05:17.116Z,98955.6
2024-04-05T06:06:16.224Z,98956.4
2024-04-05T06:07:16.431Z,98956.4
2024-04-05T06:08:48.704Z,98956.6
2024-04-05T06:09:53.141Z,98957.2
2024-04-05T06:10:16.986Z,98956.4
2024-04-05T06:11:16.190Z,98956.6
2024-04-05T06:12:16.197Z,98956.6
2024-04-05T06:13:17.031Z,98956.4
2024-04-05T06:14:16.155Z,98956.2
2024-04-05T06:15:17.094Z,98956.2
2024-04-05T06:16:16.148Z,98956.2
2024-04-05T06:17:16.308Z,98957.4
2024-04-05T06:18:17.095Z,98959
2024-04-05T06:19:16.996Z,98961.4
2024-04-05T06:20:16.660Z,98964.2
2024-04-05T06:21:16.828Z,98966.2
2024-04-05T06:22:16.070Z,98966.6
2024-04-05T06:23:16.420Z,98967.4
2024-04-05T06:24:16.764Z,98966.2
2024-04-05T06:25:16.543Z,98967.2
2024-04-05T06:26:16.793Z,98968
2024-04-05T06:27:15.988Z,98969.6
2024-04-05T06:28:16.130Z,98970.6
2024-04-05T06:29:16.355Z,98972.4
2024-04-05T06:30:17.135Z,98972
2024-04-05T06:31:16.540Z,98972.4
2024-04-05T06:32:16.911Z,98972.4
2024-04-05T06:33:16.052Z,98973
2024-04-05T06:34:16.229Z,98974.2
2024-04-05T06:35:16.990Z,98975.8
2024-04-05T06:36:16.242Z,98977.6
2024-04-05T06:37:16.403Z,98979
2024-04-05T06:38:16.702Z,98980.6
2024-04-05T06:39:16.066Z,98982.8
2024-04-05T06:40:16.695Z,98984.2
2024-04-05T06:41:16.037Z,98984.8
2024-04-05T06:42:16.285Z,98985.4
2024-04-05T06:43:18.363Z,98985.4
2024-04-05T06:44:16.754Z,98984.8
2024-04-05T06:45:16.416Z,98985.8
2024-04-05T06:46:16.753Z,98986.2
2024-04-05T06:47:15.904Z,98988.4
2024-04-05T06:48:17.113Z,98989.8
2024-04-05T06:49:16.448Z,98991.4
2024-04-05T06:50:17.362Z,98990.8
2024-04-05T06:51:16.680Z,98991.2
2024-04-05T06:52:16.893Z,98990.2
2024-04-05T06:53:16.247Z,98991.2
2024-04-05T06:54:16.436Z,98991.6
2024-04-05T06:55:17.428Z,98993
2024-04-05T06:56:16.721Z,98993.8
2024-04-05T06:57:16.939Z,98994.4
2024-04-05T06:58:16.322Z,98994.2
2024-04-05T06:59:16.648Z,98993
2024-04-05T07:00:21.055Z,98992
2024-04-05T07:01:17.278Z,98991.2
2024-04-05T07:02:53.868Z,98990.8
2024-04-05T07:03:16.436Z,98990
2024-04-05T07:04:16.725Z,98989.6
2024-04-05T07:05:16.470Z,98988.6
2024-04-05T07:06:16.933Z,98989
2024-04-05T07:07:16.202Z,98988.8
2024-04-05T07:08:16.479Z,98989.4
2024-04-05T07:09:16.931Z,98990.2
2024-04-05T07:10:39.221Z,98991.4
2024-04-05T07:11:15.912Z,98991
2024-04-05T07:12:16.214Z,98991.4
2024-04-05T07:13:16.439Z,98991.2
2024-04-05T07:14:16.673Z,98991.8
2024-04-05T07:15:23.319Z,98992.2
2024-04-05T07:16:16.556Z,98993.4
2024-04-05T07:17:16.853Z,98995.2
2024-04-05T07:18:16.398Z,98995.4
2024-04-05T07:19:19.429Z,98994.8
2024-04-05T07:20:17.166Z,98994.4
2024-04-05T07:21:16.437Z,98993.2
2024-04-05T07:22:16.645Z,98991.4
2024-04-05T07:23:15.966Z,98990.6
2024-04-05T07:24:16.381Z,98989.6
2024-04-05T07:25:17.085Z,98989.4
2024-04-05T07:26:16.104Z,98989.8
2024-04-05T07:27:16.310Z,98989.8
2024-04-05T07:28:17.659Z,98989.2
2024-04-05T07:29:16.918Z,98990.4
2024-04-05T07:30:16.445Z,98990.4
2024-04-05T07:31:17.735Z,98991.2
2024-04-05T07:32:16.327Z,98992.2
2024-04-05T07:33:16.384Z,98994.6
2024-04-05T07:34:16.867Z,98996
2024-04-05T07:35:16.544Z,98997.6
2024-04-05T07:36:17.026Z,98998.2
2024-04-05T07:37:16.419Z,98998.2
2024-04-05T07:38:16.645Z,98997.4
2024-04-05T07:39:15.942Z,98996.6
2024-04-05T07:40:16.823Z,98996.6
2024-04-05T07:41:16.043Z,98995.8
2024-04-05T07:42:16.481Z,98996
2024-04-05T07:43:16.617Z,98996.2
2024-04-05T07:44:16.800Z,98996.6
2024-04-05T07:45:16.527Z,98996.8
2024-04-05T07:46:16.732Z,98997.8
2024-04-05T07:47:15.905Z,98998.4
2024-04-05T07:48:16.378Z,99000.2
2024-04-05T07:49:17.237Z,99001.4
2024-04-05T07:50:17.846Z,99002.2
2024-04-05T07:51:17.156Z,99003.2
2024-04-05T07:52:16.227Z,99004
2024-04-05T07:53:21.660Z,99003.8
2024-04-05T07:54:19.767Z,99003.6
2024-04-05T07:55:16.989Z,99004.6
2024-04-05T07:56:16.257Z,99005
2024-04-05T07:57:16.383Z,99006.2
2024-04-05T07:58:16.721Z,99006
2024-04-05T07:59:16.099Z,99006.8
2024-04-05T08:00:23.944Z,99007
2024-04-05T08:01:16.056Z,99006
2024-04-05T08:02:16.731Z,99004.4
2024-04-05T08:03:15.917Z,99005.4
2024-04-05T08:04:16.320Z,99003.8
2024-04-05T08:05:17.071Z,99002.6
2024-04-05T08:06:16.378Z,99003.2
2024-04-05T08:07:16.714Z,99003.6
2024-04-05T08:08:19.960Z,99003.4
2024-04-05T08:09:53.391Z,99004.8
2024-04-05T08:10:30.987Z,99005.6
2024-04-05T08:11:16.155Z,99007.2
2024-04-05T08:12:19.353Z,99009.2
2024-04-05T08:13:42.564Z,99011.4
2024-04-05T08:14:25.757Z,99012.2
2024-04-05T08:15:20.868Z,99013.4
2024-04-05T08:16:16.948Z,99013.6
2024-04-05T08:17:19.042Z,99012.6
2024-04-05T08:18:25.267Z,99011.2
2024-04-05T08:19:40.459Z,99011
2024-04-05T08:20:36.257Z,99011
2024-04-05T08:21:23.376Z,99010
2024-04-05T08:22:16.686Z,99010.2
2024-04-05T08:23:18.133Z,99011
2024-04-05T08:24:19.294Z,99012.2
2024-04-05T08:25:17.235Z,99012.6
2024-04-05T08:26:17.584Z,99014
2024-04-05T08:27:17.883Z,99015.6
2024-04-05T08:28:17.218Z,99015.4
2024-04-05T08:29:24.795Z,99014.6
2024-04-05T08:30:16.546Z,99014.6
2024-04-05T08:31:16.743Z,99015.4
2024-04-05T08:32:20.030Z,99015.4
2024-04-05T08:33:16.201Z,99016.2
2024-04-05T08:34:16.468Z,99019
2024-04-05T08:35:22.118Z,99020.6
2024-04-05T08:36:16.509Z,99020.6
2024-04-05T08:37:23.929Z,99021.2
2024-04-05T08:38:16.952Z,99022.4
2024-04-05T08:39:16.401Z,99022.6
2024-04-05T08:40:17.008Z,99022.6
2024-04-05T08:41:16.435Z,99023.6
2024-04-05T08:42:16.688Z,99023.6
2024-04-05T08:43:16.856Z,99023.2
2024-04-05T08:44:16.206Z,99021.2
2024-04-05T08:45:16.851Z,99020.2
2024-04-05T08:46:16.235Z,99018.6
2024-04-05T08:47:16.575Z,99018
2024-04-05T08:48:17.132Z,99017
2024-04-05T08:49:20.494Z,99018
2024-04-05T08:50:17.141Z,99017.8
2024-04-05T08:51:19.457Z,99018.6
2024-04-05T08:52:16.650Z,99019.6
2024-04-05T08:53:18.695Z,99020.6
2024-04-05T08:54:16.475Z,99020.6
2024-04-05T08:55:16.885Z,99020.6
2024-04-05T08:56:19.180Z,99020.2
2024-04-05T08:57:16.699Z,99019.6
2024-04-05T08:58:16.882Z,99019.6
2024-04-05T08:59:15.863Z,99018.8
2024-04-05T09:00:16.564Z,99020
2024-04-05T09:01:16.710Z,99020.8
2024-04-05T09:02:16.323Z,99021.8
2024-04-05T09:03:17.661Z,99022.2
2024-04-05T09:04:15.922Z,99023.4
2024-04-05T09:05:26.562Z,99023.4
2024-04-05T09:06:16.716Z,99023.2
2024-04-05T09:07:17.106Z,99022.8
2024-04-05T09:08:16.259Z,99021.8
2024-04-05T09:09:16.704Z,99020.8
2024-04-05T09:10:16.364Z,99019.6
2024-04-05T09:11:16.535Z,99019.2
2024-04-05T09:12:16.018Z,99018.8
2024-04-05T09:13:16.244Z,99018.4
2024-04-05T09:14:23.607Z,99018.4
2024-04-05T09:15:17.422Z,99018.4
2024-04-05T09:16:21.610Z,99017.6
2024-04-05T09:17:16.897Z,99016
2024-04-05T09:18:21.204Z,99016.2
2024-04-05T09:19:16.310Z,99017
2024-04-05T09:20:16.943Z,99018
2024-04-05T09:21:17.091Z,99020.2
2024-04-05T09:22:17.334Z,99022.8
2024-04-05T09:23:16.656Z,99025.2
2024-04-05T09:24:15.744Z,99026.2
2024-04-05T09:25:16.566Z,99028
2024-04-05T09:26:15.886Z,99028.6
2024-04-05T09:27:15.950Z,99030.4
2024-04-05T09:28:16.174Z,99031
2024-04-05T09:29:16.599Z,99033.4
2024-04-05T09:30:17.346Z,99035.6
2024-04-05T09:31:17.728Z,99037.6
2024-04-05T09:32:16.010Z,99038.8
2024-04-05T09:33:16.286Z,99040.6
2024-04-05T09:34:16.650Z,99042
2024-04-05T09:35:20.382Z,99042.2
2024-04-05T09:36:16.672Z,99042.6
2024-04-05T09:37:15.844Z,99042.4
2024-04-05T09:38:16.242Z,99041.8
2024-04-05T09:39:16.762Z,99040.8
2024-04-05T09:40:16.367Z,99040.8
2024-04-05T09:41:16.622Z,99040.4
2024-04-05T09:42:16.945Z,99041.6
2024-04-05T09:43:16.033Z,99042.8
2024-04-05T09:44:26.748Z,99043.6
2024-04-05T09:45:16.799Z,99044
2024-04-05T09:46:16.119Z,99044.8
2024-04-05T09:47:16.406Z,99043.2
2024-04-05T09:48:16.528Z,99042.8
2024-04-05T09:49:16.711Z,99042
2024-04-05T09:50:16.482Z,99041.4
2024-04-05T09:51:17.711Z,99040.8
2024-04-05T09:52:15.880Z,99041.2
2024-04-05T09:53:17.181Z,99040.8
2024-04-05T09:54:16.404Z,99040
2024-04-05T09:55:21.208Z,99039
2024-04-05T09:56:16.520Z,99038.8
2024-04-05T09:57:16.841Z,99038
2024-04-05T09:58:16.031Z,99036.2
2024-04-05T09:59:16.297Z,99035.2
2024-04-05T10:00:16.874Z,99033.6
2024-04-05T10:01:16.124Z,99032.4
2024-04-05T10:02:16.673Z,99030.8
2024-04-05T10:03:16.093Z,99030
2024-04-05T10:04:16.324Z,99029.8
2024-04-05T10:05:17.142Z,99029.6
2024-04-05T10:06:16.591Z,99029.4
2024-04-05T10:07:16.718Z,99029.4
2024-04-05T10:08:15.943Z,99028.8
2024-04-05T10:09:16.438Z,99027.4
2024-04-05T10:10:17.289Z,99026.4
2024-04-05T10:11:16.806Z,99026.2
2024-04-05T10:12:16.186Z,99027
2024-04-05T10:13:16.210Z,99028
2024-04-05T10:14:16.501Z,99029.8
2024-04-05T10:15:17.217Z,99031.8
2024-04-05T10:16:16.579Z,99032.2
2024-04-05T10:17:16.904Z,99033
2024-04-05T10:18:15.966Z,99034.4
2024-04-05T10:19:16.473Z,99034.6
2024-04-05T10:20:17.404Z,99034.2
2024-04-05T10:21:16.442Z,99034
2024-04-05T10:22:16.819Z,99032.8
2024-04-05T10:23:17.559Z,99031.6
2024-04-05T10:24:16.339Z,99030.6
2024-04-05T10:25:16.970Z,99030.4
2024-04-05T10:26:16.297Z,99029
2024-04-05T10:27:16.660Z,99029
2024-04-05T10:28:16.870Z,99028
2024-04-05T10:29:16.087Z,99027
2024-04-05T10:30:16.708Z,99025
2024-04-05T10:31:15.986Z,99024.6
2024-04-05T10:32:16.333Z,99022.2
2024-04-05T10:33:16.646Z,99021
2024-04-05T10:34:17.946Z,99020.8
2024-04-05T10:35:16.578Z,99020.6
2024-04-05T10:36:16.851Z,99021.2
2024-04-05T10:37:16.143Z,99022.6
2024-04-05T10:38:38.771Z,99023.4
2024-04-05T10:39:16.837Z,99024.2
2024-04-05T10:40:16.384Z,99024.8
2024-04-05T10:41:16.717Z,99025
2024-04-05T10:42:20.006Z,99024.2
2024-04-05T10:43:16.303Z,99023.4
2024-04-05T10:44:16.518Z,99022.2
2024-04-05T10:45:17.047Z,99021.8
2024-04-05T10:46:16.299Z,99020
2024-04-05T10:47:16.573Z,99019
2024-04-05T10:48:15.760Z,99018
2024-04-05T10:49:16.109Z,99016.6
2024-04-05T10:50:17.028Z,99015.2
2024-04-05T10:51:16.180Z,99014.2
2024-04-05T10:52:16.556Z,99013.2
2024-04-05T10:53:16.827Z,99012.8
2024-04-05T10:54:15.936Z,99012.2
2024-04-05T10:55:16.646Z,99012
2024-04-05T10:56:16.709Z,99011.2
2024-04-05T10:57:16.983Z,99010.6
2024-04-05T10:58:16.064Z,99009.2
2024-04-05T10:59:16.548Z,99008.8
2024-04-05T11:00:17.222Z,99007.4
2024-04-05T11:01:17.535Z,99008.2
2024-04-05T11:02:16.884Z,99008.2
2024-04-05T11:03:16.138Z,99008.6
2024-04-05T11:04:16.933Z,99008
2024-04-05T11:05:17.321Z,99008
2024-04-05T11:06:16.416Z,99005.8
2024-04-05T11:07:16.628Z,99005.2
2024-04-05T11:08:15.869Z,99003.8
2024-04-05T11:09:16.301Z,99002.6
2024-04-05T11:10:32.500Z,99002.2
2024-04-05T11:11:16.259Z,99003.2
2024-04-05T11:12:16.588Z,99003.8
2024-04-05T11:13:16.767Z,99005.4
2024-04-05T11:14:16.279Z,99007.6
2024-04-05T11:15:16.967Z,99008
2024-04-05T11:16:16.333Z,99007.6
2024-04-05T11:17:16.613Z,99007.8
2024-04-05T11:18:16.717Z,99008.2
2024-04-05T11:19:15.805Z,99007.2
2024-04-05T11:20:16.488Z,99008.4
2024-04-05T11:21:22.755Z,99010
2024-04-05T11:22:16.027Z,99009.8
2024-04-05T11:23:16.279Z,99009.2
2024-04-05T11:24:16.449Z,99009.4
2024-04-05T11:25:17.030Z,99008.6
2024-04-05T11:26:16.287Z,99006.8
2024-04-05T11:27:16.415Z,99005
2024-04-05T11:28:16.531Z,99003.8
2024-04-05T11:29:17.023Z,99002.8
2024-04-05T11:30:16.505Z,99001.8
2024-04-05T11:31:16.926Z,99001
2024-04-05T11:32:15.995Z,99000.8
2024-04-05T11:33:16.560Z,99000.4
2024-04-05T11:34:16.946Z,98999
2024-04-05T11:35:16.490Z,98997.4
2024-04-05T11:36:16.849Z,98997.2
2024-04-05T11:37:16.014Z,98997.4
2024-04-05T11:38:16.459Z,98998
2024-04-05T11:39:21.819Z,99000
2024-04-05T11:40:36.375Z,99000.2
2024-04-05T11:41:16.662Z,98999.6
2024-04-05T11:42:16.116Z,98997.6
2024-04-05T11:43:16.271Z,98995
2024-04-05T11:44:16.564Z,98992.6
2024-04-05T11:45:17.100Z,98991.8
2024-04-05T11:46:16.431Z,98991
2024-04-05T11:47:16.679Z,98991.6
2024-04-05T11:48:18.339Z,98991.6
2024-04-05T11:49:16.350Z,98989.8
2024-04-05T11:50:17.176Z,98991.6
2024-04-05T11:51:16.411Z,98992.2
2024-04-05T11:52:16.642Z,98993
2024-04-05T11:53:15.953Z,98994
2024-04-05T11:54:16.202Z,98996.4
2024-04-05T11:55:16.886Z,98995
2024-04-05T11:56:16.355Z,98995
2024-04-05T11:57:16.630Z,98994.4
2024-04-05T11:58:16.878Z,98994.2
2024-04-05T11:59:16.202Z,98992.8
2024-04-05T12:00:16.949Z,98993.4
2024-04-05T12:01:16.300Z,98993.8
2024-04-05T12:02:16.844Z,98993.4
2024-04-05T12:03:16.356Z,98994.2
2024-04-05T12:04:16.565Z,98995.2
2024-04-05T12:05:23.127Z,98995.2
2024-04-05T12:06:16.579Z,98995
2024-04-05T12:07:15.835Z,98997.6
2024-04-05T12:08:16.135Z,99000.4
2024-04-05T12:09:16.501Z,99002.2
2024-04-05T12:10:17.174Z,99003.2
2024-04-05T12:11:16.505Z,99004
2024-04-05T12:12:16.783Z,99002.6
2024-04-05T12:13:16.593Z,98998.8
2024-04-05T12:14:18.858Z,98997